Time;durP1;ratioP1;P1;durP2;ratioP2;P2;SDS_P1;SDS_P2;PMS_P1;PMS_P2;Temp;Humidity;BMP_temperature;BMP_pressure;BME280_temperature;BME280_humidity;BME280_pressure;Samples;Min_cycle;Max_cycle;Signal;HPM_P1;HPM_P2
2022/11/26 00:01:44;;;;;;;12.07;7.83;;;;;;;;;;5026488;28;20525;-72
2022/11/26 00:04:37;;;;;;;10.10;7.70;;;;;;;;;;5028146;28;20455;-71
2022/11/26 00:07:33;;;;;;;16.33;8.57;;;;;;;;;;5027585;28;20451;-71
2022/11/26 00:10:24;;;;;;;11.87;7.80;;;;;;;;;;5030461;28;20614;-71
2022/11/26 00:13:21;;;;;;;10.77;8.13;;;;;;;;;;5030083;28;20572;-71
2022/11/26 00:16:12;;;;;;;11.97;8.20;;;;;;;;;;5024430;28;21649;-71
2022/11/26 00:19:04;;;;;;;12.07;7.60;;;;;;;;;;5023209;28;21181;-70
2022/11/26 00:21:54;;;;;;;13.97;9.07;;;;;;;;;;5024664;28;20516;-71
2022/11/26 00:24:46;;;;;;;15.70;8.90;;;;;;;;;;5031135;28;20529;-71
2022/11/26 00:27:37;;;;;;;10.27;7.77;;;;;;;;;;5030677;28;20452;-70
2022/11/26 00:30:33;;;;;;;11.87;8.70;;;;;;;;;;5028904;28;20606;-71
2022/11/26 00:33:22;;;;;;;11.57;8.07;;;;;;;;;;5032057;28;20522;-71
2022/11/26 00:36:18;;;;;;;10.43;7.80;;;;;;;;;;5034927;28;20578;-71
2022/11/26 00:39:12;;;;;;;10.53;7.90;;;;;;;;;;5035458;28;20456;-71
2022/11/26 00:42:01;;;;;;;9.47;7.57;;;;;;;;;;5031755;28;20475;-71
2022/11/26 00:44:49;;;;;;;14.80;8.13;;;;;;;;;;5029485;28;20769;-71
2022/11/26 00:47:39;;;;;;;10.20;7.60;;;;;;;;;;5034633;28;20457;-71
2022/11/26 00:50:33;;;;;;;13.87;7.43;;;;;;;;;;5034916;28;20991;-71
2022/11/26 00:53:25;;;;;;;9.43;6.93;;;;;;;;;;5039312;28;20485;-71
2022/11/26 00:56:15;;;;;;;12.03;7.70;;;;;;;;;;5038710;28;20478;-71
2022/11/26 00:59:03;;;;;;;9.10;6.77;;;;;;;;;;5037947;28;20466;-71
2022/11/26 01:01:53;;;;;;;11.00;7.30;;;;;;;;;;5038408;28;20495;-71
2022/11/26 01:04:43;;;;;;;11.47;7.00;;;;;;;;;;5036026;28;20685;-71
2022/11/26 01:07:34;;;;;;;11.10;7.30;;;;;;;;;;5033501;28;20448;-70
2022/11/26 01:10:27;;;;;;;13.40;7.00;;;;;;;;;;5036862;28;20465;-70
2022/11/26 01:13:19;;;;;;;9.83;6.90;;;;;;;;;;5034485;28;20490;-71
2022/11/26 01:16:12;;;;;;;8.70;6.20;;;;;;;;;;5036895;28;20470;-71
2022/11/26 01:19:03;;;;;;;12.40;7.83;;;;;;;;;;5034951;28;20574;-70
2022/11/26 01:21:54;;;;;;;15.07;7.63;;;;;;;;;;5036553;28;20481;-71
2022/11/26 01:24:46;;;;;;;10.30;6.97;;;;;;;;;;5029994;28;20452;-71
2022/11/26 01:27:34;;;;;;;9.30;6.13;;;;;;;;;;5027990;28;21096;-72
2022/11/26 01:30:24;;;;;;;13.03;6.63;;;;;;;;;;5029656;28;20464;-71
2022/11/26 01:33:16;;;;;;;11.23;6.60;;;;;;;;;;5033868;28;20787;-70
2022/11/26 01:36:08;;;;;;;10.57;6.20;;;;;;;;;;5029331;28;20486;-71
2022/11/26 01:39:05;;;;;;;7.10;6.40;;;;;;;;;;5029953;28;20831;-71
2022/11/26 01:41:56;;;;;;;16.73;7.10;;;;;;;;;;5030004;28;20482;-71
2022/11/26 01:44:48;;;;;;;9.97;6.67;;;;;;;;;;5032595;28;20464;-70
2022/11/26 01:47:39;;;;;;;13.93;6.93;;;;;;;;;;5030426;28;20448;-71
2022/11/26 01:50:48;;;;;;;9.60;6.70;;;;;;;;;;5022389;28;20451;-70
2022/11/26 01:53:39;;;;;;;8.90;5.90;;;;;;;;;;5031217;28;20835;-71
2022/11/26 01:56:34;;;;;;;14.13;7.20;;;;;;;;;;5029161;28;21158;-71
2022/11/26 01:59:30;;;;;;;12.90;6.60;;;;;;;;;;5036868;28;20466;-71
2022/11/26 02:02:19;;;;;;;8.13;6.30;;;;;;;;;;5023570;28;21037;-71
2022/11/26 02:05:09;;;;;;;8.30;5.93;;;;;;;;;;5026010;28;20462;-71
2022/11/26 02:08:00;;;;;;;8.20;5.93;;;;;;;;;;5027091;28;20458;-71
2022/11/26 02:10:55;;;;;;;9.20;6.07;;;;;;;;;;5033237;28;20478;-72
2022/11/26 02:13:50;;;;;;;10.33;6.30;;;;;;;;;;5027486;28;20865;-71
2022/11/26 02:16:52;;;;;;;7.87;5.87;;;;;;;;;;5026450;28;20479;-71
2022/11/26 02:19:53;;;;;;;7.80;5.93;;;;;;;;;;5022936;28;20847;-70
2022/11/26 02:23:03;;;;;;;7.87;5.90;;;;;;;;;;5026217;28;21096;-70
2022/11/26 02:26:03;;;;;;;6.70;5.57;;;;;;;;;;5030583;28;20451;-71
2022/11/26 02:29:21;;;;;;;9.00;5.73;;;;;;;;;;5030979;28;21156;-71
2022/11/26 02:32:14;;;;;;;10.20;6.17;;;;;;;;;;5033158;28;20475;-72
2022/11/26 02:35:09;;;;;;;8.23;6.77;;;;;;;;;;5043792;28;20492;-72
2022/11/26 02:37:59;;;;;;;14.13;7.70;;;;;;;;;;5044746;28;20474;-71
2022/11/26 02:40:51;;;;;;;12.90;7.33;;;;;;;;;;5051974;28;20467;-73
2022/11/26 02:43:40;;;;;;;9.90;6.97;;;;;;;;;;5053038;28;20594;-72
2022/11/26 02:46:29;;;;;;;8.63;7.10;;;;;;;;;;5052419;28;20454;-71
2022/11/26 02:49:22;;;;;;;10.20;7.93;;;;;;;;;;5056087;28;20785;-71
2022/11/26 02:52:17;;;;;;;12.93;8.40;;;;;;;;;;5052620;28;20475;-71
2022/11/26 02:58:18;;;;;;;13.87;9.87;;;;;;;;;;5039029;28;20466;-71
2022/11/26 03:01:13;;;;;;;12.33;8.30;;;;;;;;;;5041717;28;20462;-72
2022/11/26 03:04:03;;;;;;;15.30;8.80;;;;;;;;;;5030154;28;20486;-71
2022/11/26 03:07:05;;;;;;;11.83;8.63;;;;;;;;;;5036253;28;20463;-71
2022/11/26 03:09:55;;;;;;;10.23;7.80;;;;;;;;;;5037783;28;20447;-71
2022/11/26 03:12:50;;;;;;;11.83;8.60;;;;;;;;;;5033855;28;20482;-70
2022/11/26 03:15:40;;;;;;;11.00;9.30;;;;;;;;;;5023423;28;20444;-71
2022/11/26 03:18:28;;;;;;;11.53;8.10;;;;;;;;;;5032934;28;20451;-71
2022/11/26 03:21:17;;;;;;;13.73;9.33;;;;;;;;;;5035685;28;21032;-71
2022/11/26 03:24:07;;;;;;;13.83;8.67;;;;;;;;;;5031757;28;20479;-72
2022/11/26 03:26:56;;;;;;;10.10;8.57;;;;;;;;;;5036560;28;20456;-70
2022/11/26 03:29:50;;;;;;;13.13;9.30;;;;;;;;;;5036596;28;21098;-71
2022/11/26 03:32:42;;;;;;;11.73;8.60;;;;;;;;;;5029805;28;20479;-71
2022/11/26 03:35:30;;;;;;;11.07;8.40;;;;;;;;;;5031597;28;20467;-71
2022/11/26 03:38:20;;;;;;;12.80;8.60;;;;;;;;;;5032728;28;20479;-71
2022/11/26 03:41:21;;;;;;;15.30;9.80;;;;;;;;;;5027174;28;20478;-72
2022/11/26 03:44:19;;;;;;;14.77;9.83;;;;;;;;;;5031364;28;20597;-72
2022/11/26 03:47:07;;;;;;;15.53;9.87;;;;;;;;;;5024812;28;20862;-72
2022/11/26 03:49:56;;;;;;;11.87;9.07;;;;;;;;;;5037179;28;20455;-71
2022/11/26 03:52:46;;;;;;;12.40;9.87;;;;;;;;;;5033399;28;20487;-71
2022/11/26 03:55:35;;;;;;;14.73;10.37;;;;;;;;;;5033131;28;20462;-72
2022/11/26 03:58:30;;;;;;;15.30;10.10;;;;;;;;;;5037000;28;21015;-71
2022/11/26 04:01:19;;;;;;;16.20;11.47;;;;;;;;;;5038682;28;20475;-71
2022/11/26 04:04:15;;;;;;;15.43;12.73;;;;;;;;;;5036706;28;20459;-72
2022/11/26 04:07:07;;;;;;;14.50;12.30;;;;;;;;;;5033501;28;20447;-70
2022/11/26 04:09:56;;;;;;;17.47;11.67;;;;;;;;;;5033381;28;20776;-70
2022/11/26 04:12:44;;;;;;;16.80;11.50;;;;;;;;;;5036980;28;20486;-71
2022/11/26 04:15:38;;;;;;;16.73;11.17;;;;;;;;;;5028596;28;20470;-71
2022/11/26 04:18:30;;;;;;;25.03;11.43;;;;;;;;;;5031481;28;20487;-71
2022/11/26 04:21:23;;;;;;;14.83;11.23;;;;;;;;;;5035709;28;20483;-71
2022/11/26 04:24:16;;;;;;;24.90;13.07;;;;;;;;;;5035332;28;20443;-70
2022/11/26 04:27:04;;;;;;;17.77;11.23;;;;;;;;;;5025258;28;20483;-71
2022/11/26 04:29:54;;;;;;;17.23;12.13;;;;;;;;;;5032158;28;20554;-72
2022/11/26 04:32:49;;;;;;;19.37;11.50;;;;;;;;;;5027818;28;20495;-71
2022/11/26 04:35:40;;;;;;;14.83;11.20;;;;;;;;;;5022401;28;20457;-71
2022/11/26 04:38:32;;;;;;;15.23;11.10;;;;;;;;;;5028410;28;20483;-71
2022/11/26 04:41:27;;;;;;;14.73;11.63;;;;;;;;;;5028497;28;20470;-71
2022/11/26 04:44:18;;;;;;;18.00;10.90;;;;;;;;;;5026791;28;20459;-73
2022/11/26 04:47:09;;;;;;;18.40;10.50;;;;;;;;;;5027708;28;20440;-71
2022/11/26 04:50:03;;;;;;;18.50;10.70;;;;;;;;;;5033095;28;20541;-71
2022/11/26 04:52:51;;;;;;;15.00;10.80;;;;;;;;;;5035542;28;20478;-72
2022/11/26 04:55:40;;;;;;;16.13;9.93;;;;;;;;;;5037077;28;20454;-70
2022/11/26 04:58:30;;;;;;;12.23;9.67;;;;;;;;;;5036417;28;20488;-72
2022/11/26 05:01:20;;;;;;;13.47;9.30;;;;;;;;;;5034810;28;20467;-72
2022/11/26 05:04:13;;;;;;;16.30;11.03;;;;;;;;;;5031792;28;20560;-72
2022/11/26 05:07:05;;;;;;;16.43;10.20;;;;;;;;;;5036924;28;20989;-72
2022/11/26 05:09:53;;;;;;;16.60;10.30;;;;;;;;;;5035274;28;20559;-71
2022/11/26 05:12:42;;;;;;;17.60;10.43;;;;;;;;;;5036425;28;20874;-71
2022/11/26 05:15:32;;;;;;;20.20;11.87;;;;;;;;;;5033817;28;20976;-71
2022/11/26 05:18:21;;;;;;;14.50;10.60;;;;;;;;;;5034564;28;20874;-71
2022/11/26 05:21:10;;;;;;;15.33;10.97;;;;;;;;;;5037594;28;20476;-71
2022/11/26 05:23:59;;;;;;;14.17;11.30;;;;;;;;;;5039889;28;20471;-70
2022/11/26 05:26:48;;;;;;;17.13;10.00;;;;;;;;;;5031325;28;20988;-71
2022/11/26 05:29:45;;;;;;;17.57;11.60;;;;;;;;;;5035675;28;20450;-71
2022/11/26 05:32:45;;;;;;;18.13;11.10;;;;;;;;;;5030989;28;20479;-71
2022/11/26 05:35:41;;;;;;;15.60;11.37;;;;;;;;;;5037831;28;20467;-71
2022/11/26 05:38:35;;;;;;;18.63;11.57;;;;;;;;;;5029893;28;20475;-71
2022/11/26 05:41:25;;;;;;;15.70;11.50;;;;;;;;;;5032632;28;20481;-71
2022/11/26 05:44:13;;;;;;;15.10;10.30;;;;;;;;;;5023772;28;20447;-71
2022/11/26 05:47:02;;;;;;;15.17;11.47;;;;;;;;;;5026359;28;20471;-73
2022/11/26 05:49:54;;;;;;;26.03;11.87;;;;;;;;;;5019748;28;20459;-70
2022/11/26 05:52:43;;;;;;;18.07;11.07;;;;;;;;;;5021674;28;20506;-71
2022/11/26 05:55:32;;;;;;;17.37;11.10;;;;;;;;;;5029994;28;20463;-70
2022/11/26 05:58:25;;;;;;;15.47;10.40;;;;;;;;;;5027940;28;20483;-71
2022/11/26 06:01:21;;;;;;;14.53;11.10;;;;;;;;;;5020490;28;20495;-72
2022/11/26 06:04:10;;;;;;;14.00;10.77;;;;;;;;;;5020476;28;20462;-71
2022/11/26 06:06:58;;;;;;;16.33;11.10;;;;;;;;;;5027974;28;20448;-71
2022/11/26 06:09:52;;;;;;;12.30;11.00;;;;;;;;;;5024785;28;20466;-73
2022/11/26 06:12:40;;;;;;;12.90;9.20;;;;;;;;;;5024218;28;20475;-71
2022/11/26 06:15:45;;;;;;;15.70;10.67;;;;;;;;;;5029693;28;20459;-70
2022/11/26 06:18:40;;;;;;;12.97;10.50;;;;;;;;;;5030939;28;20480;-71
2022/11/26 06:21:30;;;;;;;16.43;10.60;;;;;;;;;;5030697;28;20487;-71
2022/11/26 06:24:19;;;;;;;14.73;10.53;;;;;;;;;;5032849;28;20510;-72
2022/11/26 06:27:09;;;;;;;15.20;9.70;;;;;;;;;;5032666;28;20490;-72
2022/11/26 06:30:00;;;;;;;14.23;10.77;;;;;;;;;;5031902;28;20455;-72
2022/11/26 06:32:52;;;;;;;15.77;11.33;;;;;;;;;;5027890;28;20495;-72
2022/11/26 06:35:47;;;;;;;14.80;11.07;;;;;;;;;;5031130;28;20455;-71
2022/11/26 06:38:41;;;;;;;15.07;11.00;;;;;;;;;;5031096;28;20990;-71
2022/11/26 06:41:32;;;;;;;13.50;10.20;;;;;;;;;;5027290;28;20505;-70
2022/11/26 06:44:26;;;;;;;16.97;11.60;;;;;;;;;;5038734;28;20463;-71
2022/11/26 06:47:15;;;;;;;13.83;10.90;;;;;;;;;;5034825;28;20522;-71
2022/11/26 06:50:15;;;;;;;14.47;10.90;;;;;;;;;;5035738;28;20457;-72
2022/11/26 06:53:04;;;;;;;13.87;11.07;;;;;;;;;;5040478;28;20496;-70
2022/11/26 06:55:56;;;;;;;17.23;11.63;;;;;;;;;;5033708;28;22316;-70
2022/11/26 06:58:46;;;;;;;13.63;11.23;;;;;;;;;;5031649;28;20478;-72
2022/11/26 07:01:34;;;;;;;17.30;11.57;;;;;;;;;;5035095;28;20980;-71
2022/11/26 07:04:23;;;;;;;14.87;10.50;;;;;;;;;;5022302;28;20459;-71
2022/11/26 07:07:13;;;;;;;16.23;10.93;;;;;;;;;;5030683;28;20455;-71
2022/11/26 07:10:04;;;;;;;18.20;11.97;;;;;;;;;;5035654;28;20463;-72
2022/11/26 07:12:52;;;;;;;16.30;12.40;;;;;;;;;;5038954;28;20498;-72
2022/11/26 07:15:43;;;;;;;15.87;10.77;;;;;;;;;;5037806;28;20466;-71
2022/11/26 07:18:32;;;;;;;17.20;11.87;;;;;;;;;;5041735;28;20503;-71
2022/11/26 07:21:21;;;;;;;13.53;10.40;;;;;;;;;;5046673;28;20474;-71
2022/11/26 07:24:11;;;;;;;15.20;10.77;;;;;;;;;;5049897;28;20581;-72
2022/11/26 07:27:00;;;;;;;16.83;11.80;;;;;;;;;;5049713;28;20459;-72
2022/11/26 07:29:50;;;;;;;14.23;11.83;;;;;;;;;;5051368;28;20443;-73
2022/11/26 07:32:38;;;;;;;15.00;11.57;;;;;;;;;;5041723;28;20483;-72
2022/11/26 07:35:27;;;;;;;16.63;11.83;;;;;;;;;;5034246;28;20471;-71
2022/11/26 07:38:17;;;;;;;13.80;10.33;;;;;;;;;;5028608;28;21003;-70
2022/11/26 07:41:09;;;;;;;14.93;11.57;;;;;;;;;;5037766;28;20481;-72
2022/11/26 07:43:57;;;;;;;17.20;12.20;;;;;;;;;;5034319;28;20475;-71
2022/11/26 07:46:48;;;;;;;14.40;11.73;;;;;;;;;;5027237;28;20477;-71
2022/11/26 07:49:36;;;;;;;18.70;11.70;;;;;;;;;;5038604;28;20456;-72
2022/11/26 07:52:25;;;;;;;17.03;13.73;;;;;;;;;;5034705;28;20492;-71
2022/11/26 07:55:14;;;;;;;15.87;12.00;;;;;;;;;;5021859;28;20462;-71
2022/11/26 07:58:03;;;;;;;15.13;11.80;;;;;;;;;;5034056;28;20456;-70
2022/11/26 08:00:52;;;;;;;17.80;12.80;;;;;;;;;;5023420;28;20526;-71
2022/11/26 08:03:44;;;;;;;21.50;14.00;;;;;;;;;;5033528;28;20492;-71
2022/11/26 08:06:33;;;;;;;18.20;13.60;;;;;;;;;;5028396;28;20452;-71
2022/11/26 08:09:22;;;;;;;20.00;13.20;;;;;;;;;;5029102;28;20444;-71
2022/11/26 08:12:10;;;;;;;16.23;13.03;;;;;;;;;;5015665;28;20499;-71
2022/11/26 08:15:00;;;;;;;17.67;13.90;;;;;;;;;;5031630;28;20459;-71
2022/11/26 08:17:50;;;;;;;19.70;13.87;;;;;;;;;;5021835;28;20451;-71
2022/11/26 08:20:39;;;;;;;15.30;12.70;;;;;;;;;;5021818;28;20486;-71
2022/11/26 08:23:29;;;;;;;15.40;12.00;;;;;;;;;;5025509;28;20483;-72
2022/11/26 08:26:18;;;;;;;17.93;13.30;;;;;;;;;;5029529;28;20470;-72
2022/11/26 08:29:18;;;;;;;20.70;12.80;;;;;;;;;;5028971;28;20481;-70
2022/11/26 08:32:08;;;;;;;22.13;12.60;;;;;;;;;;5021602;28;20487;-72
2022/11/26 08:34:57;;;;;;;15.03;12.37;;;;;;;;;;5021315;28;20458;-70
2022/11/26 08:37:45;;;;;;;16.73;13.30;;;;;;;;;;5036070;28;20451;-72
2022/11/26 08:40:34;;;;;;;18.07;12.63;;;;;;;;;;5027346;28;20464;-70
2022/11/26 08:43:23;;;;;;;15.93;12.80;;;;;;;;;;5030505;28;20518;-72
2022/11/26 08:46:31;;;;;;;17.23;11.43;;;;;;;;;;5020173;28;20509;-71
2022/11/26 08:49:24;;;;;;;18.53;11.90;;;;;;;;;;5024282;28;20474;-71
2022/11/26 08:52:16;;;;;;;16.57;12.30;;;;;;;;;;5037194;28;20503;-70
2022/11/26 08:55:04;;;;;;;16.80;12.20;;;;;;;;;;5038179;28;20452;-71
2022/11/26 08:57:55;;;;;;;15.20;12.67;;;;;;;;;;5036345;28;21077;-70
2022/11/26 09:00:43;;;;;;;17.87;12.40;;;;;;;;;;5033152;28;20476;-72
2022/11/26 09:03:32;;;;;;;17.47;13.90;;;;;;;;;;5024550;28;20488;-70
2022/11/26 09:06:23;;;;;;;18.13;13.30;;;;;;;;;;5023773;28;20454;-72
2022/11/26 09:09:16;;;;;;;18.67;13.67;;;;;;;;;;5025629;28;20451;-70
2022/11/26 09:12:05;;;;;;;16.30;12.60;;;;;;;;;;5031731;28;20485;-71
2022/11/26 09:14:54;;;;;;;18.43;13.37;;;;;;;;;;5027485;28;20459;-71
2022/11/26 09:17:42;;;;;;;22.03;14.60;;;;;;;;;;5038149;28;20467;-71
2022/11/26 09:20:31;;;;;;;16.93;13.23;;;;;;;;;;5028734;28;20491;-72
2022/11/26 09:23:21;;;;;;;17.57;13.93;;;;;;;;;;5032183;28;21054;-70
2022/11/26 09:26:10;;;;;;;20.40;13.80;;;;;;;;;;5028807;28;20482;-74
2022/11/26 09:28:58;;;;;;;17.87;13.60;;;;;;;;;;5026706;28;20550;-72
2022/11/26 09:31:48;;;;;;;17.00;13.87;;;;;;;;;;5001717;28;21126;-72
2022/11/26 09:34:56;;;;;;;15.53;13.40;;;;;;;;;;5014958;28;20448;-72
2022/11/26 09:37:47;;;;;;;21.70;14.20;;;;;;;;;;5021755;28;20483;-70
2022/11/26 09:40:50;;;;;;;23.07;14.60;;;;;;;;;;5024008;28;20482;-72
2022/11/26 09:43:45;;;;;;;18.43;14.23;;;;;;;;;;5019454;28;20478;-70
2022/11/26 09:46:41;;;;;;;17.13;14.40;;;;;;;;;;5008139;28;20885;-70
2022/11/26 09:50:00;;;;;;;19.67;14.87;;;;;;;;;;5021558;28;20893;-70
2022/11/26 09:52:51;;;;;;;18.20;14.10;;;;;;;;;;5025101;28;20483;-70
2022/11/26 09:55:42;;;;;;;22.73;14.27;;;;;;;;;;5019000;28;21805;-74
2022/11/26 09:58:34;;;;;;;16.87;13.03;;;;;;;;;;5021788;28;20447;-77
2022/11/26 10:01:23;;;;;;;19.27;14.00;;;;;;;;;;5005288;28;20483;-71
2022/11/26 10:04:18;;;;;;;20.73;13.97;;;;;;;;;;5028194;28;20464;-71
2022/11/26 10:07:09;;;;;;;18.00;14.20;;;;;;;;;;5020619;28;20549;-71
2022/11/26 10:10:04;;;;;;;16.90;12.40;;;;;;;;;;5025016;28;20450;-70
2022/11/26 10:13:06;;;;;;;19.13;13.43;;;;;;;;;;5021513;28;20490;-70
2022/11/26 10:16:13;;;;;;;17.43;12.83;;;;;;;;;;5022693;28;20548;-72
2022/11/26 10:19:05;;;;;;;20.00;13.87;;;;;;;;;;5024082;28;20474;-71
2022/11/26 10:21:55;;;;;;;15.40;12.77;;;;;;;;;;5029594;28;20478;-73
2022/11/26 10:24:49;;;;;;;17.83;13.77;;;;;;;;;;5023476;28;20500;-74
2022/11/26 10:27:38;;;;;;;18.33;13.30;;;;;;;;;;5028192;28;20447;-72
2022/11/26 10:30:29;;;;;;;17.93;12.80;;;;;;;;;;5017323;28;20514;-70
2022/11/26 10:33:18;;;;;;;15.33;12.20;;;;;;;;;;5029448;28;20966;-72
2022/11/26 10:36:09;;;;;;;16.33;12.10;;;;;;;;;;5019066;28;20483;-70
2022/11/26 10:39:00;;;;;;;14.93;12.10;;;;;;;;;;5016518;28;20447;-71
2022/11/26 10:41:49;;;;;;;19.03;14.67;;;;;;;;;;5013447;28;20546;-70
2022/11/26 10:44:39;;;;;;;15.83;12.77;;;;;;;;;;5009664;28;20836;-72
2022/11/26 10:47:31;;;;;;;17.40;12.60;;;;;;;;;;5006357;28;20455;-69
2022/11/26 10:50:22;;;;;;;20.43;13.37;;;;;;;;;;4998607;28;20450;-71
2022/11/26 10:53:32;;;;;;;16.93;11.97;;;;;;;;;;5017424;28;20513;-71
2022/11/26 10:56:23;;;;;;;17.00;11.97;;;;;;;;;;5025023;28;20455;-70
2022/11/26 10:59:18;;;;;;;20.10;13.40;;;;;;;;;;5019952;28;20470;-70
2022/11/26 11:02:15;;;;;;;15.80;11.80;;;;;;;;;;5026717;28;20995;-72
2022/11/26 11:05:08;;;;;;;14.90;11.83;;;;;;;;;;5034065;28;20586;-70
2022/11/26 11:07:57;;;;;;;18.90;12.50;;;;;;;;;;5040045;28;20542;-70
2022/11/26 11:10:54;;;;;;;20.10;12.17;;;;;;;;;;5020175;28;20483;-70
2022/11/26 11:13:45;;;;;;;15.80;12.03;;;;;;;;;;5018311;28;20503;-71
2022/11/26 11:16:38;;;;;;;17.23;13.27;;;;;;;;;;5031300;28;20486;-71
2022/11/26 11:19:29;;;;;;;17.20;12.87;;;;;;;;;;5035618;28;20459;-71
2022/11/26 11:22:22;;;;;;;16.20;12.40;;;;;;;;;;5024401;28;20486;-71
2022/11/26 11:25:21;;;;;;;15.00;12.30;;;;;;;;;;5027431;28;20462;-71
2022/11/26 11:28:17;;;;;;;16.80;12.80;;;;;;;;;;5018832;28;20451;-71
2022/11/26 11:31:08;;;;;;;23.50;14.13;;;;;;;;;;5018599;28;20522;-70
2022/11/26 11:34:12;;;;;;;21.70;13.60;;;;;;;;;;5024449;28;20490;-71
2022/11/26 11:37:02;;;;;;;19.93;13.50;;;;;;;;;;5023723;28;20799;-73
2022/11/26 11:40:02;;;;;;;17.53;12.97;;;;;;;;;;5017849;28;20460;-71
2022/11/26 11:42:54;;;;;;;17.90;13.60;;;;;;;;;;5019194;28;20489;-70
2022/11/26 11:45:44;;;;;;;22.13;14.90;;;;;;;;;;5010642;28;20869;-71
2022/11/26 11:48:45;;;;;;;19.30;14.70;;;;;;;;;;5020581;28;20460;-70
2022/11/26 11:51:39;;;;;;;18.97;13.80;;;;;;;;;;5012403;28;20993;-72
2022/11/26 11:54:30;;;;;;;17.63;13.30;;;;;;;;;;5012325;28;20510;-70
2022/11/26 11:57:25;;;;;;;18.70;12.90;;;;;;;;;;5017464;28;20455;-71
2022/11/26 12:00:17;;;;;;;20.80;14.13;;;;;;;;;;5021383;28;20491;-71
2022/11/26 12:03:21;;;;;;;22.73;16.00;;;;;;;;;;5012133;28;20478;-72
2022/11/26 12:06:17;;;;;;;18.13;13.17;;;;;;;;;;5024901;28;20447;-72
2022/11/26 12:09:12;;;;;;;19.60;14.00;;;;;;;;;;5047087;28;20547;-72
2022/11/26 12:12:10;;;;;;;17.70;12.80;;;;;;;;;;5046038;28;20482;-71
2022/11/26 12:15:08;;;;;;;21.03;14.60;;;;;;;;;;5020698;28;20455;-71
2022/11/26 12:18:03;;;;;;;20.93;15.30;;;;;;;;;;5014808;28;20464;-71
2022/11/26 12:20:55;;;;;;;18.17;14.00;;;;;;;;;;5021467;28;20515;-71
2022/11/26 12:23:50;;;;;;;21.30;16.00;;;;;;;;;;5010672;28;20998;-72
2022/11/26 12:26:40;;;;;;;25.13;15.80;;;;;;;;;;4994268;28;21894;-71
2022/11/26 12:29:33;;;;;;;22.60;15.80;;;;;;;;;;5021781;28;20542;-71
2022/11/26 12:32:26;;;;;;;26.03;16.00;;;;;;;;;;5018290;28;20490;-71
2022/11/26 12:35:16;;;;;;;22.10;15.90;;;;;;;;;;5032589;28;20474;-71
2022/11/26 12:38:07;;;;;;;24.30;14.80;;;;;;;;;;5032889;28;20557;-72
2022/11/26 12:41:01;;;;;;;27.10;16.27;;;;;;;;;;5015145;28;20485;-72
2022/11/26 12:43:58;;;;;;;26.23;16.40;;;;;;;;;;5033057;28;20981;-71
2022/11/26 12:46:54;;;;;;;25.10;15.97;;;;;;;;;;5026471;28;20452;-72
2022/11/26 12:49:48;;;;;;;24.90;17.13;;;;;;;;;;5026062;28;20471;-71
2022/11/26 12:52:42;;;;;;;23.07;16.90;;;;;;;;;;5025875;28;20888;-70
2022/11/26 12:55:36;;;;;;;22.87;15.27;;;;;;;;;;5015916;28;20491;-71
2022/11/26 12:58:27;;;;;;;24.70;16.80;;;;;;;;;;5030712;28;21145;-71
2022/11/26 13:01:16;;;;;;;22.13;15.97;;;;;;;;;;5020676;28;21152;-70
2022/11/26 13:04:06;;;;;;;23.03;15.83;;;;;;;;;;5028390;28;20479;-72
2022/11/26 13:07:21;;;;;;;22.70;15.60;;;;;;;;;;5032707;28;21490;-72
2022/11/26 13:10:19;;;;;;;20.63;14.07;;;;;;;;;;5028249;28;20522;-71
2022/11/26 13:13:14;;;;;;;21.33;14.77;;;;;;;;;;5020609;28;21411;-72
2022/11/26 13:16:03;;;;;;;23.70;14.70;;;;;;;;;;5033083;28;21042;-71
2022/11/26 13:18:54;;;;;;;23.20;14.77;;;;;;;;;;5025260;28;20447;-73
2022/11/26 13:21:48;;;;;;;24.33;14.47;;;;;;;;;;5013877;28;21441;-72
2022/11/26 13:24:43;;;;;;;23.27;14.57;;;;;;;;;;5030161;28;20852;-71
2022/11/26 13:27:37;;;;;;;27.63;14.70;;;;;;;;;;5026809;28;20470;-71
2022/11/26 13:30:35;;;;;;;25.00;15.80;;;;;;;;;;5022611;28;20963;-71
2022/11/26 13:33:37;;;;;;;24.60;15.40;;;;;;;;;;5029611;28;20846;-70
2022/11/26 13:36:33;;;;;;;25.57;14.50;;;;;;;;;;5032167;28;20448;-71
2022/11/26 13:39:36;;;;;;;24.60;15.07;;;;;;;;;;5035124;28;20467;-71
2022/11/26 13:42:38;;;;;;;24.07;14.97;;;;;;;;;;5035889;28;20495;-71
2022/11/26 13:45:45;;;;;;;26.47;15.70;;;;;;;;;;5027638;28;20916;-69
2022/11/26 13:48:37;;;;;;;25.57;15.27;;;;;;;;;;5018316;28;20462;-68
2022/11/26 13:51:30;;;;;;;24.80;14.77;;;;;;;;;;5023265;28;20479;-68
2022/11/26 13:54:20;;;;;;;23.83;16.00;;;;;;;;;;5028796;28;21152;-69
2022/11/26 13:57:11;;;;;;;28.27;17.43;;;;;;;;;;5021605;28;21001;-69
2022/11/26 14:00:02;;;;;;;22.50;14.50;;;;;;;;;;5009559;28;20995;-69
2022/11/26 14:02:54;;;;;;;20.83;13.90;;;;;;;;;;5012753;28;20545;-69
2022/11/26 14:06:01;;;;;;;27.33;15.80;;;;;;;;;;5016428;28;20448;-69
2022/11/26 14:08:56;;;;;;;26.53;15.80;;;;;;;;;;5012617;28;20475;-68
2022/11/26 14:11:55;;;;;;;22.17;14.97;;;;;;;;;;5021368;28;20468;-70
2022/11/26 14:14:46;;;;;;;23.67;15.20;;;;;;;;;;5007812;28;20486;-69
2022/11/26 14:17:55;;;;;;;24.50;14.77;;;;;;;;;;5005447;28;21264;-70
2022/11/26 14:20:59;;;;;;;21.90;15.17;;;;;;;;;;5001824;28;21002;-69
2022/11/26 14:23:48;;;;;;;25.30;15.60;;;;;;;;;;5011999;28;21033;-75
2022/11/26 14:26:38;;;;;;;23.53;16.03;;;;;;;;;;5012748;28;20833;-77
2022/11/26 14:29:26;;;;;;;27.13;17.20;;;;;;;;;;5011535;28;20459;-76
2022/11/26 14:32:19;;;;;;;26.90;16.33;;;;;;;;;;4994893;28;20599;-77
2022/11/26 14:35:18;;;;;;;25.73;16.13;;;;;;;;;;5011555;28;20459;-76
2022/11/26 14:38:08;;;;;;;30.33;17.13;;;;;;;;;;5028264;28;20851;-75
2022/11/26 14:40:57;;;;;;;24.30;16.27;;;;;;;;;;5028397;28;20482;-76
2022/11/26 14:43:46;;;;;;;27.27;17.23;;;;;;;;;;5033003;28;20484;-77
2022/11/26 14:46:35;;;;;;;28.77;17.10;;;;;;;;;;5025011;28;20486;-76
2022/11/26 14:49:32;;;;;;;30.13;17.37;;;;;;;;;;5034143;28;20455;-75
2022/11/26 14:52:24;;;;;;;29.60;17.50;;;;;;;;;;5029994;28;20631;-77
2022/11/26 14:55:17;;;;;;;32.27;17.53;;;;;;;;;;5025580;28;20820;-75
2022/11/26 14:58:10;;;;;;;27.03;17.77;;;;;;;;;;5036527;28;20487;-75
2022/11/26 15:01:03;;;;;;;26.17;16.93;;;;;;;;;;5031422;28;20472;-74
2022/11/26 15:03:58;;;;;;;24.90;17.07;;;;;;;;;;5029835;28;21392;-77
2022/11/26 15:06:47;;;;;;;31.50;17.47;;;;;;;;;;5035196;28;20593;-76
2022/11/26 15:09:42;;;;;;;28.50;17.40;;;;;;;;;;5027311;28;20443;-71
2022/11/26 15:12:32;;;;;;;23.80;15.80;;;;;;;;;;5032381;28;20537;-73
2022/11/26 15:15:24;;;;;;;25.20;16.13;;;;;;;;;;5033709;28;20464;-70
2022/11/26 15:18:17;;;;;;;28.53;15.93;;;;;;;;;;5030444;28;20574;-73
2022/11/26 15:21:07;;;;;;;25.33;15.87;;;;;;;;;;5021691;28;20538;-71
2022/11/26 15:23:57;;;;;;;24.20;14.77;;;;;;;;;;5028138;28;20853;-72
2022/11/26 15:26:51;;;;;;;26.23;15.50;;;;;;;;;;5028572;28;20525;-73
2022/11/26 15:29:42;;;;;;;24.87;16.23;;;;;;;;;;5021764;28;20459;-69
2022/11/26 15:32:32;;;;;;;23.77;15.13;;;;;;;;;;5031406;28;20943;-69
2022/11/26 15:35:20;;;;;;;32.77;18.20;;;;;;;;;;5033584;28;20451;-69
2022/11/26 15:38:13;;;;;;;27.50;17.07;;;;;;;;;;5026717;28;20464;-69
2022/11/26 15:41:05;;;;;;;24.77;15.80;;;;;;;;;;5018475;28;20486;-69
2022/11/26 15:43:58;;;;;;;30.60;16.97;;;;;;;;;;5031604;28;20483;-68
2022/11/26 15:46:51;;;;;;;27.83;16.80;;;;;;;;;;5019554;28;20451;-69
2022/11/26 15:49:40;;;;;;;26.00;17.23;;;;;;;;;;5011178;28;20893;-68
2022/11/26 15:52:31;;;;;;;27.53;18.20;;;;;;;;;;5032604;28;20488;-69
2022/11/26 15:55:28;;;;;;;32.40;18.83;;;;;;;;;;5018065;28;20460;-69
2022/11/26 15:58:23;;;;;;;29.90;17.57;;;;;;;;;;5030927;28;20543;-68
2022/11/26 16:01:16;;;;;;;29.73;18.43;;;;;;;;;;5034801;28;20479;-69
2022/11/26 16:04:07;;;;;;;31.17;18.67;;;;;;;;;;5035485;28;20981;-69
2022/11/26 16:07:11;;;;;;;32.23;18.83;;;;;;;;;;5028205;28;21061;-68
2022/11/26 16:10:20;;;;;;;27.60;18.57;;;;;;;;;;5023033;28;20614;-69
2022/11/26 16:13:18;;;;;;;35.20;19.13;;;;;;;;;;5028518;28;20472;-68
2022/11/26 16:16:14;;;;;;;37.80;18.73;;;;;;;;;;5022552;28;20460;-72
2022/11/26 16:19:04;;;;;;;32.40;18.27;;;;;;;;;;5031864;28;20986;-69
2022/11/26 16:21:56;;;;;;;33.83;19.23;;;;;;;;;;5030825;28;20614;-69
2022/11/26 16:24:45;;;;;;;34.13;20.30;;;;;;;;;;5029926;28;20451;-69
2022/11/26 16:27:34;;;;;;;32.80;20.20;;;;;;;;;;5028318;28;22130;-69
2022/11/26 16:30:23;;;;;;;39.13;21.00;;;;;;;;;;5016446;28;20452;-68
2022/11/26 16:33:14;;;;;;;35.27;22.13;;;;;;;;;;5031729;28;20601;-70
2022/11/26 16:36:13;;;;;;;36.43;21.23;;;;;;;;;;5034260;28;20511;-69
2022/11/26 16:39:04;;;;;;;39.00;21.03;;;;;;;;;;5018923;28;20466;-68
2022/11/26 16:41:58;;;;;;;38.60;21.40;;;;;;;;;;5032464;28;20474;-69
2022/11/26 16:44:48;;;;;;;41.40;23.03;;;;;;;;;;5040892;28;20455;-73
2022/11/26 16:47:40;;;;;;;40.33;24.67;;;;;;;;;;5029007;28;20590;-71
2022/11/26 16:50:28;;;;;;;43.37;23.33;;;;;;;;;;5006653;28;20460;-71
2022/11/26 16:53:18;;;;;;;34.03;21.00;;;;;;;;;;5032436;28;21003;-71